Time;durP1;ratioP1;P1;durP2;ratioP2;P2;SDS_P1;SDS_P2;PMS_P1;PMS_P2;Temp;Humidity;BMP_temperature;BMP_pressure;BME280_temperature;BME280_humidity;BME280_pressure;Samples;Min_cycle;Max_cycle;Signal;HPM_P1;HPM_P2
2023/02/05 00:00:27;;;;;;;13.82;7.47;;;3.20;13.30;;;;;;7387814;19;20014;-79
2023/02/05 00:02:56;;;;;;;14.25;7.63;;;3.30;12.50;;;;;;7389492;19;20469;-79
2023/02/05 00:05:26;;;;;;;14.32;7.82;;;3.20;11.70;;;;;;7388297;19;20014;-78
2023/02/05 00:07:56;;;;;;;17.23;7.95;;;3.10;12.20;;;;;;7388431;19;20017;-78
2023/02/05 00:10:26;;;;;;;14.68;7.95;;;3.10;12.00;;;;;;7386231;19;20017;-78
2023/02/05 00:12:58;;;;;;;15.88;9.00;;;3.10;11.70;;;;;;7390529;19;20452;-78
2023/02/05 00:15:28;;;;;;;15.10;8.32;;;3.00;11.40;;;;;;7389325;19;20014;-79
2023/02/05 00:17:58;;;;;;;13.95;8.45;;;3.00;12.70;;;;;;7390231;19;20600;-78
2023/02/05 00:20:28;;;;;;;17.27;9.38;;;3.00;12.70;;;;;;7387129;19;20017;-78
2023/02/05 00:22:58;;;;;;;11.80;8.20;;;3.10;13.10;;;;;;7389844;19;20025;-78
2023/02/05 00:25:28;;;;;;;19.88;9.60;;;3.10;12.80;;;;;;7388995;19;20489;-78
2023/02/05 00:28:01;;;;;;;16.00;9.00;;;3.10;11.90;;;;;;7401988;19;20018;-78
2023/02/05 00:30:31;;;;;;;14.85;9.07;;;3.00;12.00;;;;;;7401500;19;20007;-78
2023/02/05 00:33:01;;;;;;;17.40;9.88;;;3.00;12.00;;;;;;7403351;19;20014;-78
2023/02/05 00:35:30;;;;;;;19.77;9.90;;;3.10;12.40;;;;;;7402979;19;20491;-77
2023/02/05 00:38:01;;;;;;;15.90;8.90;;;3.10;12.50;;;;;;7403219;19;20078;-79
2023/02/05 00:40:31;;;;;;;18.42;8.75;;;3.00;11.70;;;;;;7400378;19;20028;-77
2023/02/05 00:43:03;;;;;;;18.55;8.82;;;3.00;11.80;;;;;;7403027;19;20015;-78
2023/02/05 00:45:34;;;;;;;17.58;8.93;;;3.00;11.70;;;;;;7401724;19;20011;-79
2023/02/05 00:48:04;;;;;;;16.35;8.70;;;3.00;11.30;;;;;;7402953;19;20096;-79
2023/02/05 00:50:35;;;;;;;19.10;9.52;;;3.10;11.80;;;;;;7400813;19;20025;-78
2023/02/05 00:53:05;;;;;;;14.13;8.45;;;3.00;11.50;;;;;;7402947;19;20034;-78
2023/02/05 00:55:35;;;;;;;13.38;8.35;;;3.10;12.20;;;;;;7402748;19;20359;-78
2023/02/05 00:58:07;;;;;;;16.40;8.35;;;3.20;11.90;;;;;;7401611;19;20030;-78
2023/02/05 01:00:37;;;;;;;17.25;8.93;;;3.20;11.40;;;;;;7400508;19;20010;-78
2023/02/05 01:03:07;;;;;;;13.65;8.38;;;3.20;11.50;;;;;;7402634;19;20022;-78
2023/02/05 01:05:38;;;;;;;15.73;8.68;;;3.20;11.40;;;;;;7402268;19;20360;-78
2023/02/05 01:08:09;;;;;;;19.67;9.00;;;3.10;11.40;;;;;;7402543;19;20021;-78
2023/02/05 01:10:39;;;;;;;15.63;8.82;;;3.00;11.50;;;;;;7399696;19;20015;-79
2023/02/05 01:13:11;;;;;;;16.38;8.77;;;3.10;12.50;;;;;;7404180;19;20017;-78
2023/02/05 01:15:43;;;;;;;14.00;8.98;;;3.10;11.30;;;;;;7401986;19;20092;-78
2023/02/05 01:18:14;;;;;;;15.00;9.15;;;3.00;11.70;;;;;;7401973;19;20015;-78
2023/02/05 01:20:44;;;;;;;18.52;9.05;;;3.00;12.00;;;;;;7399872;19;20019;-78
2023/02/05 01:23:14;;;;;;;14.27;8.10;;;3.00;11.70;;;;;;7401368;19;20017;-78
2023/02/05 01:25:44;;;;;;;14.00;7.28;;;3.00;11.70;;;;;;7401792;19;20018;-78
2023/02/05 01:28:17;;;;;;;13.75;7.78;;;2.90;11.30;;;;;;7400014;19;20011;-78
2023/02/05 01:30:49;;;;;;;10.82;6.70;;;2.80;11.20;;;;;;7399591;19;20031;-78
2023/02/05 01:33:19;;;;;;;13.02;7.88;;;2.90;11.30;;;;;;7401813;19;20006;-78
2023/02/05 01:35:49;;;;;;;12.88;7.15;;;2.90;11.30;;;;;;7401552;19;20030;-78
2023/02/05 01:38:19;;;;;;;14.88;8.30;;;2.90;11.60;;;;;;7395845;19;20014;-78
2023/02/05 01:40:48;;;;;;;12.30;7.43;;;3.00;11.30;;;;;;7393776;19;20074;-78
2023/02/05 01:43:21;;;;;;;12.30;7.53;;;3.00;10.80;;;;;;7394932;19;20082;-78
2023/02/05 01:46:08;;;;;;;12.65;7.90;;;2.90;11.10;;;;;;7393183;19;20089;-79
2023/02/05 01:48:43;;;;;;;12.65;7.60;;;3.00;11.30;;;;;;7393612;19;20035;-79
2023/02/05 01:51:17;;;;;;;12.15;7.82;;;3.00;10.30;;;;;;7394408;19;20010;-78
2023/02/05 01:53:49;;;;;;;14.25;7.68;;;2.90;10.10;;;;;;7394630;19;20018;-78
2023/02/05 01:56:22;;;;;;;10.88;7.50;;;3.00;10.60;;;;;;7394219;19;20014;-78
2023/02/05 01:58:59;;;;;;;12.85;7.60;;;3.10;10.30;;;;;;7393025;19;20078;-79
2023/02/05 02:01:30;;;;;;;10.68;7.10;;;3.10;10.10;;;;;;7392678;19;20031;-79
2023/02/05 02:04:04;;;;;;;14.52;7.82;;;3.00;10.20;;;;;;7393920;19;20521;-79
2023/02/05 02:06:35;;;;;;;13.20;6.60;;;2.90;11.20;;;;;;7393796;19;20011;-79
2023/02/05 02:09:07;;;;;;;12.82;7.15;;;3.00;11.30;;;;;;7391071;19;20018;-79
2023/02/05 02:11:39;;;;;;;12.00;7.63;;;2.90;10.90;;;;;;7393543;19;20090;-79
2023/02/05 02:14:13;;;;;;;15.55;7.80;;;2.80;11.10;;;;;;7394963;19;20010;-77
2023/02/05 02:16:43;;;;;;;11.82;7.32;;;2.80;11.70;;;;;;7393523;19;20010;-78
2023/02/05 02:19:20;;;;;;;12.32;8.13;;;2.90;11.30;;;;;;7392170;19;20096;-78
2023/02/05 02:22:18;;;;;;;13.98;7.95;;;2.90;11.70;;;;;;7392421;19;20342;-78
2023/02/05 02:25:14;;;;;;;18.98;8.70;;;2.90;11.30;;;;;;7393381;19;20018;-78
2023/02/05 02:27:51;;;;;;;12.52;7.70;;;2.80;11.20;;;;;;7393203;19;20014;-78
2023/02/05 02:30:27;;;;;;;11.07;8.57;;;2.70;12.10;;;;;;7390814;19;20020;-78
2023/02/05 02:33:08;;;;;;;13.00;8.35;;;2.60;13.00;;;;;;7392730;19;20066;-79
2023/02/05 02:35:45;;;;;;;12.50;8.32;;;2.60;13.70;;;;;;7392671;19;20043;-79
2023/02/05 02:38:22;;;;;;;15.73;9.25;;;2.70;14.10;;;;;;7392613;19;20332;-78
2023/02/05 02:40:55;;;;;;;11.90;7.97;;;2.80;13.80;;;;;;7393064;19;20019;-78
2023/02/05 02:43:32;;;;;;;15.23;9.05;;;2.70;13.30;;;;;;7390266;19;20475;-79
2023/02/05 02:46:05;;;;;;;12.55;8.57;;;2.70;13.90;;;;;;7390995;19;20019;-78
2023/02/05 02:48:38;;;;;;;14.23;9.23;;;2.60;14.50;;;;;;7391596;19;20027;-79
2023/02/05 02:51:10;;;;;;;15.40;9.02;;;2.60;14.60;;;;;;7391888;19;20015;-78
2023/02/05 02:53:46;;;;;;;14.52;9.05;;;2.60;14.60;;;;;;7392157;19;20018;-78
2023/02/05 02:56:18;;;;;;;14.73;9.00;;;2.70;15.10;;;;;;7392523;19;20015;-78
2023/02/05 02:58:54;;;;;;;14.27;9.25;;;2.70;15.30;;;;;;7390616;19;20120;-78
2023/02/05 03:01:27;;;;;;;17.38;8.93;;;2.70;15.10;;;;;;7390265;19;20460;-78
2023/02/05 03:04:01;;;;;;;16.15;9.27;;;2.80;14.60;;;;;;7392166;19;20021;-78
2023/02/05 03:06:33;;;;;;;12.60;8.98;;;2.80;14.00;;;;;;7391894;19;20014;-78
2023/02/05 03:09:07;;;;;;;15.55;8.70;;;2.80;12.70;;;;;;7390705;19;20015;-78
2023/02/05 03:11:37;;;;;;;17.08;8.98;;;2.70;12.40;;;;;;7391625;19;20580;-79
2023/02/05 03:14:09;;;;;;;12.15;8.23;;;2.80;13.30;;;;;;7394745;19;20021;-78
2023/02/05 03:16:39;;;;;;;15.23;8.63;;;2.80;13.40;;;;;;7391262;19;20081;-78
2023/02/05 03:19:10;;;;;;;13.90;8.90;;;2.80;13.20;;;;;;7390589;19;20014;-78
2023/02/05 03:21:44;;;;;;;13.77;8.85;;;2.80;12.90;;;;;;7391621;19;20017;-79
2023/02/05 03:24:14;;;;;;;16.10;9.15;;;2.90;13.40;;;;;;7391580;19;20019;-78
2023/02/05 03:26:44;;;;;;;10.45;7.68;;;2.90;13.40;;;;;;7391251;19;20012;-79
2023/02/05 03:29:28;;;;;;;14.20;9.07;;;2.80;12.60;;;;;;7389549;19;20035;-78
2023/02/05 03:32:13;;;;;;;13.88;8.57;;;2.80;13.10;;;;;;7389938;19;20487;-78
2023/02/05 03:34:52;;;;;;;12.88;8.80;;;2.70;13.00;;;;;;7391154;19;20010;-78
2023/02/05 03:37:32;;;;;;;16.13;9.48;;;2.60;13.50;;;;;;7390957;19;20466;-78
2023/02/05 03:40:11;;;;;;;16.55;9.77;;;2.60;13.70;;;;;;7389567;19;20018;-78
2023/02/05 03:42:51;;;;;;;14.05;8.68;;;2.50;14.60;;;;;;7389880;19;20011;-78
2023/02/05 03:45:44;;;;;;;14.85;8.82;;;2.40;14.50;;;;;;7390806;19;20025;-79
2023/02/05 03:48:24;;;;;;;17.88;9.85;;;2.40;15.30;;;;;;7390672;19;20021;-78
2023/02/05 03:51:01;;;;;;;19.25;10.18;;;2.30;15.90;;;;;;7391347;19;20315;-77
2023/02/05 03:53:39;;;;;;;18.75;10.27;;;2.30;15.80;;;;;;7390894;19;20025;-78
2023/02/05 03:56:13;;;;;;;15.35;9.90;;;2.30;16.50;;;;;;7390503;19;20014;-78
2023/02/05 03:58:45;;;;;;;15.27;10.48;;;2.20;16.90;;;;;;7389705;19;20037;-79
2023/02/05 04:01:18;;;;;;;19.85;11.20;;;2.20;17.50;;;;;;7389023;19;20040;-79
2023/02/05 04:03:48;;;;;;;20.33;10.85;;;2.20;17.80;;;;;;7387056;19;20043;-79
2023/02/05 04:06:18;;;;;;;14.43;10.60;;;2.20;17.80;;;;;;7390092;19;20022;-78
2023/02/05 04:08:48;;;;;;;17.83;10.45;;;2.10;17.70;;;;;;7387377;19;20020;-78
2023/02/05 04:11:18;;;;;;;17.05;10.50;;;2.10;17.70;;;;;;7388713;19;20021;-78
2023/02/05 04:13:47;;;;;;;17.70;10.38;;;2.20;17.80;;;;;;7392778;19;20322;-78
2023/02/05 04:16:20;;;;;;;15.68;10.30;;;2.10;17.70;;;;;;7389704;19;20531;-78
2023/02/05 04:18:50;;;;;;;13.32;10.05;;;2.00;17.70;;;;;;7388647;19;20021;-78
2023/02/05 04:21:20;;;;;;;16.30;10.35;;;2.10;17.80;;;;;;7389307;19;20010;-79
2023/02/05 04:23:49;;;;;;;16.23;9.85;;;1.90;17.70;;;;;;7386621;19;20015;-78
2023/02/05 04:26:19;;;;;;;14.95;10.80;;;1.80;18.80;;;;;;7389547;19;20499;-78
2023/02/05 04:28:49;;;;;;;19.30;10.95;;;1.80;19.90;;;;;;7388411;19;20015;-78
2023/02/05 04:31:21;;;;;;;15.85;9.85;;;1.90;20.40;;;;;;7389401;19;20474;-79
2023/02/05 04:33:51;;;;;;;16.65;11.27;;;1.90;20.70;;;;;;7388887;19;20019;-79
2023/02/05 04:36:21;;;;;;;16.67;10.85;;;1.90;21.20;;;;;;7388809;19;20549;-77
2023/02/05 04:38:51;;;;;;;18.50;10.95;;;2.00;21.20;;;;;;7387969;19;20423;-78
2023/02/05 04:41:21;;;;;;;19.80;11.40;;;2.00;21.20;;;;;;7389152;19;20018;-78
2023/02/05 04:43:50;;;;;;;14.60;10.20;;;2.10;21.20;;;;;;7387388;19;20486;-78
2023/02/05 04:46:23;;;;;;;16.33;10.55;;;2.20;20.70;;;;;;7388559;19;20019;-78
2023/02/05 04:48:53;;;;;;;20.92;11.07;;;2.20;20.30;;;;;;7387628;19;20010;-79
2023/02/05 04:51:22;;;;;;;16.98;10.30;;;2.10;19.60;;;;;;7389094;19;20015;-78
2023/02/05 04:53:52;;;;;;;19.25;9.88;;;2.20;19.80;;;;;;7388123;19;20019;-80
2023/02/05 04:56:22;;;;;;;14.10;9.80;;;2.10;19.20;;;;;;7388438;19;20019;-78
2023/02/05 04:58:52;;;;;;;15.80;9.98;;;2.10;19.60;;;;;;7385535;19;20047;-78
2023/02/05 05:01:25;;;;;;;16.52;9.95;;;2.20;19.90;;;;;;7388770;19;20022;-77
2023/02/05 05:03:55;;;;;;;17.75;11.00;;;2.10;20.20;;;;;;7353139;19;20369;-78
2023/02/05 05:06:25;;;;;;;16.38;10.10;;;2.10;20.30;;;;;;7362863;19;20128;-77
2023/02/05 05:08:55;;;;;;;17.67;9.50;;;2.10;20.50;;;;;;7359573;19;20054;-78
2023/02/05 05:11:25;;;;;;;15.88;9.73;;;2.20;20.70;;;;;;7381476;19;20010;-78
2023/02/05 05:13:55;;;;;;;15.05;9.85;;;2.20;19.80;;;;;;7365191;19;20015;-78
2023/02/05 05:16:27;;;;;;;20.55;10.40;;;2.20;20.20;;;;;;7367160;19;20027;-78
2023/02/05 05:18:57;;;;;;;13.30;8.77;;;2.20;20.20;;;;;;7365796;19;20028;-78
2023/02/05 05:21:27;;;;;;;15.45;9.68;;;2.20;20.10;;;;;;7367278;19;20031;-78
2023/02/05 05:23:57;;;;;;;15.27;9.77;;;2.30;19.80;;;;;;7365844;19;20011;-79
2023/02/05 05:26:27;;;;;;;17.45;10.20;;;2.30;19.30;;;;;;7388603;19;20025;-78
2023/02/05 05:28:57;;;;;;;13.85;9.20;;;2.30;18.90;;;;;;7365457;19;20010;-78
2023/02/05 05:31:30;;;;;;;18.95;10.20;;;2.30;18.50;;;;;;7366558;19;20156;-78
2023/02/05 05:33:59;;;;;;;14.80;9.60;;;2.30;18.30;;;;;;7366456;19;20014;-77
2023/02/05 05:36:29;;;;;;;15.32;9.55;;;2.30;18.50;;;;;;7366752;19;20420;-78
2023/02/05 05:43:45;;;;;;;16.02;9.50;;;2.30;18.30;;;;;;7365605;19;20014;-78
2023/02/05 05:44:31;;;;;;;17.08;10.05;;;2.30;18.80;;;;;;7384938;19;20502;-78
2023/02/05 05:47:04;;;;;;;16.85;9.52;;;2.40;19.00;;;;;;7366565;19;20018;-78
2023/02/05 05:49:34;;;;;;;18.63;10.18;;;2.40;18.50;;;;;;7363335;19;20014;-78
2023/02/05 05:52:03;;;;;;;15.25;9.32;;;2.40;18.00;;;;;;7366195;19;20399;-78
2023/02/05 05:54:33;;;;;;;17.70;9.98;;;2.40;17.90;;;;;;7366153;19;20057;-78
2023/02/05 05:57:03;;;;;;;17.95;8.82;;;2.40;18.50;;;;;;7366088;19;20018;-78
2023/02/05 05:59:33;;;;;;;14.90;9.38;;;2.40;18.00;;;;;;7375309;19;20019;-78
2023/02/05 06:02:06;;;;;;;17.88;9.93;;;2.40;18.30;;;;;;7391279;19;20034;-78
2023/02/05 06:04:36;;;;;;;18.20;9.90;;;2.40;18.00;;;;;;7370057;19;20034;-78
2023/02/05 06:07:06;;;;;;;16.65;9.82;;;2.30;17.90;;;;;;7398372;19;20029;-78
2023/02/05 06:09:36;;;;;;;22.25;9.73;;;2.20;17.80;;;;;;7392001;19;20074;-78
2023/02/05 06:12:06;;;;;;;16.33;9.38;;;2.10;17.90;;;;;;7394278;19;20035;-78
2023/02/05 06:14:38;;;;;;;21.08;10.05;;;2.10;18.90;;;;;;7395296;19;20014;-78
2023/02/05 06:17:11;;;;;;;18.50;9.30;;;2.10;19.10;;;;;;7393889;19;20022;-78
2023/02/05 06:19:41;;;;;;;15.70;10.02;;;2.10;19.30;;;;;;7391839;19;20022;-78
2023/02/05 06:22:11;;;;;;;19.55;9.93;;;2.10;19.50;;;;;;7393267;19;20018;-78
2023/02/05 06:24:40;;;;;;;21.05;10.52;;;2.00;19.80;;;;;;7390836;19;20363;-78
2023/02/05 06:27:10;;;;;;;20.83;11.27;;;2.10;20.60;;;;;;7393413;19;20356;-78
2023/02/05 06:29:40;;;;;;;20.48;10.73;;;2.20;21.00;;;;;;7390080;19;20014;-78
2023/02/05 06:32:12;;;;;;;19.55;10.88;;;2.30;20.10;;;;;;7392897;19;20014;-78
2023/02/05 06:34:42;;;;;;;20.17;10.85;;;2.30;19.70;;;;;;7392996;19;20021;-78
2023/02/05 06:37:12;;;;;;;20.55;10.57;;;2.30;17.90;;;;;;7391399;19;20033;-78
2023/02/05 06:39:41;;;;;;;17.70;9.65;;;2.40;19.20;;;;;;7390557;19;20384;-78
2023/02/05 06:42:11;;;;;;;16.33;10.05;;;2.30;18.70;;;;;;7392733;19;20159;-78
2023/02/05 06:44:41;;;;;;;19.02;10.02;;;2.30;17.90;;;;;;7391286;19;20024;-78
2023/02/05 06:47:13;;;;;;;17.00;9.93;;;2.40;18.60;;;;;;7392115;19;20011;-79
2023/02/05 06:49:43;;;;;;;17.77;9.80;;;2.30;17.90;;;;;;7388580;19;20435;-79
2023/02/05 06:52:13;;;;;;;17.10;9.52;;;2.40;19.10;;;;;;7392494;19;20010;-79
2023/02/05 06:54:43;;;;;;;16.75;10.05;;;2.40;18.00;;;;;;7392143;19;20021;-78
2023/02/05 06:57:13;;;;;;;18.92;10.40;;;2.40;18.50;;;;;;7392357;19;20021;-78
2023/02/05 06:59:43;;;;;;;16.60;9.80;;;2.50;18.80;;;;;;7390053;19;20025;-78
2023/02/05 07:02:16;;;;;;;14.85;9.60;;;2.50;18.20;;;;;;7391958;19;20006;-78
2023/02/05 07:04:46;;;;;;;17.13;10.10;;;2.50;18.30;;;;;;7390944;19;20014;-78
2023/02/05 07:07:16;;;;;;;17.75;9.85;;;2.50;18.00;;;;;;7390700;19;20046;-78
2023/02/05 07:09:46;;;;;;;20.45;10.40;;;2.60;18.10;;;;;;7389812;19;20092;-78
2023/02/05 07:12:16;;;;;;;19.23;10.35;;;2.60;18.10;;;;;;7392254;19;20467;-78
2023/02/05 07:14:46;;;;;;;15.27;9.63;;;2.60;18.10;;;;;;7395817;19;20021;-79
2023/02/05 07:17:19;;;;;;;17.08;9.30;;;2.60;18.10;;;;;;7391520;19;20014;-78
2023/02/05 07:19:49;;;;;;;17.15;10.77;;;2.60;18.10;;;;;;7388718;19;20046;-75
2023/02/05 07:22:19;;;;;;;20.88;10.20;;;2.70;18.20;;;;;;7391672;19;20018;-76
2023/02/05 07:24:49;;;;;;;20.20;10.25;;;2.70;18.10;;;;;;7389974;19;20083;-78
2023/02/05 07:27:19;;;;;;;14.93;9.85;;;2.70;18.10;;;;;;7391472;19;20014;-79
2023/02/05 07:29:49;;;;;;;17.30;9.55;;;2.70;18.10;;;;;;7389312;19;20042;-79
2023/02/05 07:32:21;;;;;;;17.70;9.95;;;2.70;18.10;;;;;;7390978;19;20368;-78
2023/02/05 07:34:51;;;;;;;20.38;10.32;;;2.80;18.20;;;;;;7389126;19;20029;-78
2023/02/05 07:37:21;;;;;;;20.65;10.02;;;2.80;18.20;;;;;;7388464;19;20557;-78
2023/02/05 07:39:51;;;;;;;19.67;10.38;;;2.70;17.90;;;;;;7388978;19;20017;-78
2023/02/05 07:42:21;;;;;;;18.95;9.65;;;2.70;18.10;;;;;;7390785;19;20022;-78
2023/02/05 07:44:51;;;;;;;14.10;9.85;;;2.70;17.80;;;;;;7390272;19;20013;-78
2023/02/05 07:47:23;;;;;;;25.00;9.98;;;2.80;17.20;;;;;;7390219;19;20486;-79
2023/02/05 07:49:53;;;;;;;20.67;9.77;;;2.80;17.50;;;;;;7388998;19;20018;-79
2023/02/05 07:52:23;;;;;;;16.85;10.07;;;2.80;17.10;;;;;;7390369;19;20010;-79
2023/02/05 07:54:53;;;;;;;21.08;10.27;;;2.80;16.60;;;;;;7389914;19;20470;-78
2023/02/05 07:57:22;;;;;;;20.85;9.25;;;2.90;17.10;;;;;;7390207;19;20002;-79
2023/02/05 07:59:52;;;;;;;21.45;9.68;;;2.90;16.70;;;;;;7386798;19;20014;-78
2023/02/05 08:02:25;;;;;;;16.85;9.80;;;2.90;16.50;;;;;;7390185;19;20011;-79
2023/02/05 08:04:54;;;;;;;16.25;9.70;;;2.90;16.70;;;;;;7389015;19;20497;-79
2023/02/05 08:07:24;;;;;;;18.25;9.95;;;2.90;16.70;;;;;;7389751;19;20018;-79
2023/02/05 08:09:54;;;;;;;17.75;8.73;;;2.90;16.20;;;;;;7387879;19;20025;-78
2023/02/05 08:12:24;;;;;;;15.10;9.75;;;2.90;15.10;;;;;;7389814;19;20019;-78
2023/02/05 08:14:54;;;;;;;16.13;9.30;;;2.90;14.80;;;;;;7394214;19;20085;-78
2023/02/05 08:17:26;;;;;;;20.00;10.85;;;2.90;15.50;;;;;;7389807;19;20006;-79
2023/02/05 08:19:57;;;;;;;16.27;9.60;;;3.10;16.30;;;;;;7387756;19;20028;-78
2023/02/05 08:22:27;;;;;;;15.57;9.40;;;3.10;15.50;;;;;;7389261;19;20014;-79
2023/02/05 08:24:57;;;;;;;20.08;9.80;;;3.10;14.90;;;;;;7388293;19;20033;-79
2023/02/05 08:27:26;;;;;;;17.02;9.00;;;3.10;14.00;;;;;;7387556;19;20383;-79
2023/02/05 08:29:58;;;;;;;18.77;9.43;;;3.10;14.60;;;;;;7387302;19;20023;-79
2023/02/05 08:32:31;;;;;;;17.45;9.48;;;3.10;14.20;;;;;;7389025;19;20020;-79
2023/02/05 08:35:00;;;;;;;17.60;9.27;;;3.20;15.00;;;;;;7388746;19;20556;-78
2023/02/05 08:37:30;;;;;;;19.38;10.57;;;3.30;15.10;;;;;;7388664;19;20074;-79
2023/02/05 08:40:00;;;;;;;14.57;8.55;;;3.30;14.70;;;;;;7387442;19;20021;-79
2023/02/05 08:42:30;;;;;;;17.92;10.00;;;3.40;15.40;;;;;;7389296;19;20762;-79
2023/02/05 08:45:00;;;;;;;16.20;9.68;;;3.40;15.40;;;;;;7387999;19;20019;-79
2023/02/05 08:47:32;;;;;;;16.08;9.40;;;3.30;15.00;;;;;;7389272;19;20018;-78
2023/02/05 08:50:02;;;;;;;18.90;9.93;;;3.30;16.00;;;;;;7393486;19;20042;-79
2023/02/05 08:52:32;;;;;;;17.88;10.18;;;3.40;17.50;;;;;;7396386;19;20032;-79
2023/02/05 08:55:03;;;;;;;17.83;9.98;;;3.40;17.70;;;;;;7395449;19;20024;-79
2023/02/05 08:57:33;;;;;;;16.85;10.23;;;3.50;17.80;;;;;;7395743;19;20006;-79
2023/02/05 09:00:03;;;;;;;17.58;10.05;;;3.50;17.90;;;;;;7392971;19;20025;-79
2023/02/05 09:02:36;;;;;;;20.05;10.57;;;3.50;16.80;;;;;;7357112;19;20014;-79
2023/02/05 09:05:06;;;;;;;17.98;9.32;;;3.60;17.00;;;;;;7392272;19;20493;-78
2023/02/05 09:07:38;;;;;;;16.20;10.25;;;3.50;17.20;;;;;;7367436;19;20077;-78
2023/02/05 09:10:10;;;;;;;18.98;11.27;;;3.50;17.90;;;;;;7364559;19;20018;-77
2023/02/05 09:12:40;;;;;;;21.92;10.50;;;3.50;18.70;;;;;;7367602;19;20015;-77
2023/02/05 09:15:11;;;;;;;18.98;10.60;;;3.50;18.60;;;;;;7366661;19;20024;-77
2023/02/05 09:17:44;;;;;;;19.40;11.10;;;3.50;19.70;;;;;;7367634;19;20116;-77
2023/02/05 09:20:14;;;;;;;19.55;11.18;;;3.40;20.20;;;;;;7386166;19;20019;-76
2023/02/05 09:22:44;;;;;;;20.45;12.13;;;3.40;22.10;;;;;;7366233;19;20015;-76
2023/02/05 09:25:14;;;;;;;20.98;11.73;;;3.40;23.50;;;;;;7365692;19;20007;-76
2023/02/05 09:27:44;;;;;;;22.00;11.27;;;3.40;24.60;;;;;;7366899;19;20085;-75
2023/02/05 09:30:15;;;;;;;22.23;10.90;;;3.40;25.40;;;;;;7364644;19;20015;-75
2023/02/05 09:32:47;;;;;;;19.05;11.63;;;3.30;25.30;;;;;;7367002;19;20490;-74
2023/02/05 09:35:17;;;;;;;19.98;11.95;;;3.30;26.10;;;;;;7387975;19;20015;-75
2023/02/05 09:37:47;;;;;;;24.45;11.70;;;3.30;26.90;;;;;;7365919;19;20106;-75
2023/02/05 09:40:21;;;;;;;20.25;11.23;;;3.40;27.70;;;;;;7362519;19;20021;-75
2023/02/05 09:43:01;;;;;;;21.58;12.52;;;3.40;27.40;;;;;;7366143;19;20038;-75
2023/02/05 09:45:40;;;;;;;19.63;12.48;;;3.40;27.40;;;;;;7364876;19;20010;-75
2023/02/05 09:48:35;;;;;;;23.95;11.93;;;3.40;28.20;;;;;;7365996;19;20021;-76
2023/02/05 09:51:09;;;;;;;15.80;11.57;;;3.40;28.30;;;;;;7365415;19;20014;-76
2023/02/05 09:53:44;;;;;;;20.50;12.50;;;3.40;28.70;;;;;;7365931;19;20027;-75
2023/02/05 09:56:15;;;;;;;25.52;12.60;;;3.40;28.30;;;;;;7387562;19;20014;-76
2023/02/05 09:58:48;;;;;;;21.58;12.52;;;3.40;28.70;;;;;;7363043;19;20038;-76
2023/02/05 10:01:24;;;;;;;26.23;11.77;;;3.50;29.10;;;;;;7367562;19;20021;-75
2023/02/05 10:04:00;;;;;;;24.13;13.50;;;3.50;28.90;;;;;;7369126;19;20014;-76
2023/02/05 10:06:56;;;;;;;21.23;12.82;;;3.50;29.80;;;;;;7394569;19;20010;-76
2023/02/05 10:09:45;;;;;;;24.40;13.15;;;3.50;29.60;;;;;;7391660;19;20463;-76
2023/02/05 10:12:28;;;;;;;20.58;12.68;;;3.50;29.70;;;;;;7393172;19;20085;-75
2023/02/05 10:15:12;;;;;;;22.42;11.63;;;3.50;29.70;;;;;;7393032;19;20024;-76
2023/02/05 10:17:56;;;;;;;22.20;12.68;;;3.50;29.60;;;;;;7393199;19;20015;-75
2023/02/05 10:20:48;;;;;;;19.33;11.60;;;3.50;29.90;;;;;;7390510;19;20078;-77
2023/02/05 10:23:41;;;;;;;25.02;12.00;;;3.60;31.60;;;;;;7393274;19;20014;-76
2023/02/05 10:26:13;;;;;;;22.92;12.77;;;3.60;30.30;;;;;;7391951;19;20014;-76
2023/02/05 10:29:02;;;;;;;19.95;12.10;;;3.60;31.00;;;;;;7390142;19;20486;-76
2023/02/05 10:31:43;;;;;;;17.10;11.60;;;3.60;31.60;;;;;;7393017;19;20011;-76
2023/02/05 10:34:36;;;;;;;25.63;13.05;;;3.70;30.90;;;;;;7392180;19;20014;-76
2023/02/05 10:37:16;;;;;;;28.02;14.23;;;3.70;31.60;;;;;;7391997;19;20021;-76
2023/02/05 10:39:46;;;;;;;19.35;12.75;;;3.70;32.50;;;;;;7399949;19;20006;-76
2023/02/05 10:42:29;;;;;;;26.73;13.90;;;3.80;31.70;;;;;;7422981;19;20018;-77
2023/02/05 10:45:07;;;;;;;20.17;12.82;;;3.70;31.60;;;;;;7426278;19;20375;-76
2023/02/05 10:47:51;;;;;;;25.95;13.00;;;3.70;32.00;;;;;;7405793;19;20510;-76
2023/02/05 10:50:26;;;;;;;26.83;13.23;;;3.70;32.40;;;;;;7393552;19;20010;-76
2023/02/05 10:52:59;;;;;;;21.58;13.48;;;3.60;31.20;;;;;;7393988;19;20474;-76
2023/02/05 10:55:30;;;;;;;22.95;13.63;;;3.80;33.10;;;;;;7393534;19;20014;-76
2023/02/05 10:57:59;;;;;;;24.65;13.02;;;3.80;32.90;;;;;;7392166;19;20403;-76
2023/02/05 11:00:29;;;;;;;21.40;12.13;;;3.70;30.50;;;;;;7389931;19;20057;-75
2023/02/05 11:03:00;;;;;;;21.48;12.57;;;3.70;31.90;;;;;;7392114;19;20036;-76
2023/02/05 11:05:37;;;;;;;24.55;13.80;;;3.80;33.40;;;;;;7391965;19;20018;-76
2023/02/05 11:08:33;;;;;;;25.05;13.40;;;3.90;32.90;;;;;;7389893;19;20078;-76
2023/02/05 11:11:04;;;;;;;24.73;14.18;;;3.80;32.00;;;;;;7391250;19;20030;-77
2023/02/05 11:13:36;;;;;;;24.50;14.60;;;3.90;33.20;;;;;;7391600;19;20478;-76
2023/02/05 11:16:09;;;;;;;21.40;12.70;;;4.00;32.70;;;;;;7391768;19;20014;-75
2023/02/05 11:18:44;;;;;;;26.30;13.05;;;4.00;32.40;;;;;;7390887;19;20031;-76
2023/02/05 11:21:15;;;;;;;24.55;13.80;;;4.10;32.30;;;;;;7391116;19;20014;-75
2023/02/05 11:23:57;;;;;;;24.67;12.98;;;4.10;33.80;;;;;;7391566;19;20039;-76
2023/02/05 11:26:29;;;;;;;27.20;14.00;;;4.20;33.20;;;;;;7390291;19;20020;-76
2023/02/05 11:28:59;;;;;;;26.77;13.60;;;4.20;33.20;;;;;;7390104;19;20346;-75
2023/02/05 11:31:35;;;;;;;27.27;13.48;;;4.30;33.30;;;;;;7391151;19;20078;-75
2023/02/05 11:34:19;;;;;;;24.77;13.02;;;4.20;32.50;;;;;;7389453;19;20069;-75
2023/02/05 11:36:52;;;;;;;26.53;13.20;;;4.30;33.30;;;;;;7390544;19;20490;-76
2023/02/05 11:39:39;;;;;;;23.33;12.75;;;4.30;32.90;;;;;;7387670;19;20259;-75
2023/02/05 11:42:11;;;;;;;21.45;13.82;;;4.30;33.10;;;;;;7390507;19;20350;-74
2023/02/05 11:44:50;;;;;;;25.10;14.00;;;4.30;33.30;;;;;;7390394;19;20065;-75
2023/02/05 11:47:26;;;;;;;24.35;13.35;;;4.40;32.90;;;;;;7389626;19;20018;-75
2023/02/05 11:49:58;;;;;;;23.23;13.63;;;4.40;32.80;;;;;;7388446;19;20343;-76
2023/02/05 11:52:31;;;;;;;19.00;12.73;;;4.40;33.30;;;;;;7389026;19;20022;-76
2023/02/05 11:55:03;;;;;;;23.95;13.07;;;4.50;33.50;;;;;;7388597;19;20023;-75
2023/02/05 11:57:37;;;;;;;23.70;12.90;;;4.50;33.90;;;;;;7389742;19;20017;-76
2023/02/05 12:00:22;;;;;;;23.83;12.73;;;4.50;33.20;;;;;;7388260;19;20142;-77
2023/02/05 12:03:05;;;;;;;23.33;12.82;;;4.60;33.90;;;;;;7389613;19;20077;-76
2023/02/05 12:05:40;;;;;;;24.65;13.43;;;4.60;34.20;;;;;;7389680;19;20482;-78
2023/02/05 12:08:15;;;;;;;22.13;13.77;;;4.50;32.10;;;;;;7388187;19;20014;-76
2023/02/05 12:10:53;;;;;;;22.23;13.13;;;4.40;34.50;;;;;;7387763;19;20011;-77
2023/02/05 12:13:29;;;;;;;22.58;14.75;;;4.30;33.80;;;;;;7390613;19;20455;-77
2023/02/05 12:16:07;;;;;;;26.15;14.40;;;4.30;35.70;;;;;;7389928;19;20043;-77
2023/02/05 12:18:53;;;;;;;28.60;15.38;;;4.30;37.40;;;;;;7388321;19;20519;-77
2023/02/05 12:21:34;;;;;;;26.13;16.10;;;4.30;38.90;;;;;;7389759;19;20174;-78
2023/02/05 12:24:20;;;;;;;28.35;14.35;;;4.20;41.00;;;;;;7388622;19;20042;-77
2023/02/05 12:26:58;;;;;;;23.67;15.45;;;4.20;42.90;;;;;;7387310;19;20075;-78
2023/02/05 12:29:47;;;;;;;32.75;17.88;;;4.20;42.90;;;;;;7386892;19;20082;-77
2023/02/05 12:32:29;;;;;;;33.40;17.60;;;4.10;43.80;;;;;;7389381;19;20478;-77
2023/02/05 12:35:12;;;;;;;31.80;19.85;;;4.20;44.20;;;;;;7388926;19;20033;-76
2023/02/05 12:37:49;;;;;;;30.65;20.92;;;4.20;44.50;;;;;;7388495;19;20013;-76
2023/02/05 12:40:38;;;;;;;32.63;18.33;;;4.20;45.00;;;;;;7386826;19;20014;-78
2023/02/05 12:43:23;;;;;;;28.52;16.33;;;4.20;45.60;;;;;;7387418;19;20015;-77
2023/02/05 12:46:02;;;;;;;31.20;18.92;;;4.20;45.60;;;;;;7388972;19;20049;-77
2023/02/05 12:48:56;;;;;;;34.05;17.17;;;4.10;46.50;;;;;;7386428;19;20019;-77
2023/02/05 12:51:38;;;;;;;29.58;18.33;;;4.10;46.60;;;;;;7388660;19;20011;-77
2023/02/05 12:54:26;;;;;;;29.45;16.55;;;4.20;47.60;;;;;;7388479;19;20066;-76
2023/02/05 12:57:00;;;;;;;28.55;15.55;;;4.30;48.10;;;;;;7388630;19;20021;-76
2023/02/05 12:59:40;;;;;;;30.63;18.15;;;4.30;48.70;;;;;;7386765;19;20006;-76
2023/02/05 13:02:21;;;;;;;30.08;16.38;;;4.30;48.30;;;;;;7386477;19;20086;-77
2023/02/05 13:04:57;;;;;;;30.60;17.77;;;4.30;49.70;;;;;;7386741;19;20007;-78
2023/02/05 13:07:35;;;;;;;28.40;14.82;;;4.30;49.70;;;;;;7388024;19;20020;-76
2023/02/05 13:10:07;;;;;;;27.38;14.88;;;4.30;49.70;;;;;;7386191;19;20015;-78
2023/02/05 13:12:42;;;;;;;25.40;14.30;;;4.20;49.70;;;;;;7387856;19;20474;-77
2023/02/05 13:15:21;;;;;;;23.83;14.18;;;4.30;49.80;;;;;;7387797;19;20098;-77